Time;durP1;ratioP1;P1;durP2;ratioP2;P2;SDS_P1;SDS_P2;PMS_P1;PMS_P2;Temp;Humidity;BMP_temperature;BMP_pressure;BME280_temperature;BME280_humidity;BME280_pressure;Samples;Min_cycle;Max_cycle;Signal;HPM_P1;HPM_P2
2022/01/08 00:00:17;;;;;;;59.70;26.85;;;;;;;-4.89;100.00;98009.13;5113736;28;20031;-77
2022/01/08 00:02:42;;;;;;;78.25;30.60;;;;;;;-4.81;100.00;98006.28;5116453;28;20028;-77
2022/01/08 00:05:09;;;;;;;61.72;27.50;;;;;;;-4.72;100.00;98012.28;5115146;28;20106;-75
2022/01/08 00:07:34;;;;;;;62.60;26.58;;;;;;;-4.73;100.00;98007.97;5114787;28;20028;-76
2022/01/08 00:10:00;;;;;;;73.65;29.67;;;;;;;-4.60;100.00;98010.69;5114738;28;20020;-75
2022/01/08 00:12:25;;;;;;;95.75;32.05;;;;;;;-4.72;100.00;98005.09;5119256;28;20499;-76
2022/01/08 00:14:51;;;;;;;79.70;32.20;;;;;;;-4.74;100.00;98004.47;5117513;28;20055;-78
2022/01/08 00:17:16;;;;;;;85.93;30.20;;;;;;;-4.74;100.00;98007.16;5113875;28;20378;-76
2022/01/08 00:19:42;;;;;;;64.38;28.35;;;;;;;-4.78;100.00;97992.56;5113629;28;20032;-77
2022/01/08 00:22:08;;;;;;;75.10;29.38;;;;;;;-4.79;100.00;98001.56;5113629;28;20032;-78
2022/01/08 00:24:34;;;;;;;68.75;29.08;;;;;;;-4.97;100.00;97998.59;5113547;28;20384;-76
2022/01/08 00:26:59;;;;;;;80.53;30.98;;;;;;;-4.90;100.00;97999.47;5113352;28;20015;-78
2022/01/08 00:29:24;;;;;;;74.05;30.88;;;;;;;-4.99;100.00;97992.66;5113716;28;20127;-78
2022/01/08 00:31:50;;;;;;;63.13;28.70;;;;;;;-5.04;100.00;97990.56;5112106;28;20031;-78
2022/01/08 00:34:15;;;;;;;62.10;27.20;;;;;;;-5.00;100.00;97981.16;5113985;28;20046;-78
2022/01/08 00:36:41;;;;;;;63.50;29.10;;;;;;;-4.85;100.00;97978.34;5113612;28;20038;-79
2022/01/08 00:39:06;;;;;;;56.65;24.65;;;;;;;-4.93;100.00;97979.34;5113552;28;20027;-78
2022/01/08 00:41:32;;;;;;;60.08;26.65;;;;;;;-5.08;100.00;97983.16;5113716;28;20050;-78
2022/01/08 00:43:57;;;;;;;65.60;28.75;;;;;;;-5.23;100.00;97985.94;5113523;28;20102;-79
2022/01/08 00:46:22;;;;;;;60.63;27.60;;;;;;;-5.17;100.00;97984.34;5113614;28;20388;-79
2022/01/08 00:48:48;;;;;;;68.30;28.80;;;;;;;-5.12;100.00;97984.56;5113462;28;20023;-76
2022/01/08 00:51:13;;;;;;;65.30;27.92;;;;;;;-5.00;100.00;97993.66;5113022;28;20027;-79
2022/01/08 00:53:39;;;;;;;55.88;26.88;;;;;;;-4.98;100.00;97986.31;5112650;28;20436;-77
2022/01/08 00:56:05;;;;;;;66.68;27.88;;;;;;;-4.82;100.00;98007.28;5112805;28;20040;-76
2022/01/08 00:58:31;;;;;;;61.10;27.73;;;;;;;-4.86;100.00;97992.72;5112097;28;20050;-78
2022/01/08 01:00:56;;;;;;;62.22;27.30;;;;;;;-4.91;100.00;97993.31;5092770;28;20540;-77
2022/01/08 01:03:21;;;;;;;59.30;26.60;;;;;;;-4.92;100.00;97994.31;5092921;28;20035;-77
2022/01/08 01:05:47;;;;;;;62.03;26.70;;;;;;;-4.90;100.00;97981.63;5092433;28;20065;-77
2022/01/08 01:08:13;;;;;;;67.13;28.33;;;;;;;-4.96;100.00;97974.44;5091834;28;20025;-77
2022/01/08 01:10:38;;;;;;;54.25;26.45;;;;;;;-5.12;100.00;97976.56;5092229;28;20028;-79
2022/01/08 01:13:04;;;;;;;69.18;29.80;;;;;;;-5.17;100.00;97965.69;5092138;28;20024;-77
2022/01/08 01:15:29;;;;;;;65.90;29.83;;;;;;;-5.03;100.00;97980.72;5092039;28;20024;-77
2022/01/08 01:17:54;;;;;;;61.60;29.95;;;;;;;-4.84;100.00;97982.69;5092122;28;20544;-78
2022/01/08 01:20:20;;;;;;;67.63;30.38;;;;;;;-4.86;100.00;97974.06;5091717;28;20020;-77
2022/01/08 01:23:06;;;;;;;66.05;28.50;;;;;;;-4.73;100.00;97973.31;5091968;28;20123;-77
2022/01/08 01:25:39;;;;;;;66.90;29.38;;;;;;;-4.83;100.00;97978.19;5091750;28;20030;-77
2022/01/08 01:48:59;;;;;;;69.57;26.15;;;;;;;-4.74;100.00;97945.81;5091542;28;20085;-81
2022/01/08 01:51:24;;;;;;;59.10;27.30;;;;;;;-4.76;100.00;97945.16;5091331;28;20473;-80
2022/01/08 01:53:50;;;;;;;58.13;27.65;;;;;;;-4.83;100.00;97941.66;5091985;28;20031;-77
2022/01/08 01:56:17;;;;;;;69.00;29.02;;;;;;;-4.88;100.00;97938.75;5091621;28;20040;-78
2022/01/08 01:58:42;;;;;;;71.25;30.85;;;;;;;-4.81;100.00;97950.28;5091518;28;20114;-78
2022/01/08 02:01:08;;;;;;;72.40;30.25;;;;;;;-4.77;100.00;97948.88;5091695;28;20127;-77
2022/01/08 02:03:34;;;;;;;78.75;30.42;;;;;;;-4.81;100.00;97942.28;5092126;28;20545;-78
2022/01/08 02:06:00;;;;;;;65.18;29.63;;;;;;;-4.82;100.00;97937.97;5091376;28;20035;-80
2022/01/08 02:08:25;;;;;;;59.90;29.23;;;;;;;-4.84;100.00;97937.34;5091189;28;20396;-78
2022/01/08 02:10:50;;;;;;;64.15;28.67;;;;;;;-4.78;100.00;97939.22;5091089;28;20024;-78
2022/01/08 02:13:24;;;;;;;63.88;28.05;;;;;;;-4.78;100.00;97925.06;5091963;28;20491;-78
2022/01/08 02:15:54;;;;;;;61.75;27.40;;;;;;;-4.80;100.00;97927.09;5092860;28;20028;-78
2022/01/08 02:18:25;;;;;;;62.97;27.90;;;;;;;-4.73;100.00;97936.75;5093141;28;20024;-78
2022/01/08 02:20:52;;;;;;;63.42;28.23;;;;;;;-4.85;100.00;97930.34;5091460;28;20384;-78
2022/01/08 02:23:17;;;;;;;68.30;28.60;;;;;;;-4.81;100.00;97936.94;5092307;28;20023;-78
2022/01/08 02:25:43;;;;;;;56.92;26.27;;;;;;;-4.87;100.00;97940.41;5098158;28;20024;-77
2022/01/08 02:28:08;;;;;;;62.78;27.33;;;;;;;-4.95;100.00;97925.38;5091834;28;20020;-77
2022/01/08 02:30:34;;;;;;;61.88;25.90;;;;;;;-4.93;100.00;97922.53;5091235;28;20016;-79
2022/01/08 02:32:59;;;;;;;72.60;27.73;;;;;;;-5.07;100.00;97918.97;5090062;28;20028;-79
2022/01/08 02:35:26;;;;;;;65.50;27.65;;;;;;;-5.08;100.00;97920.03;5091470;28;20020;-78
2022/01/08 02:37:53;;;;;;;60.72;27.15;;;;;;;-5.19;100.00;97912.56;5091109;28;20032;-78
2022/01/08 02:40:20;;;;;;;74.30;27.92;;;;;;;-5.19;100.00;97903.75;5090944;28;20081;-79
2022/01/08 02:42:54;;;;;;;68.60;28.85;;;;;;;-5.20;100.00;97910.91;5090672;28;20056;-78
2022/01/08 02:45:21;;;;;;;73.27;28.87;;;;;;;-5.18;100.00;97906.22;5090342;28;20028;-77
2022/01/08 02:47:49;;;;;;;75.13;28.60;;;;;;;-5.22;100.00;97907.63;5090089;28;20272;-78
2022/01/08 02:50:16;;;;;;;73.68;29.75;;;;;;;-5.21;100.00;97905.78;5090687;28;20028;-77
2022/01/08 02:52:43;;;;;;;66.57;28.58;;;;;;;-5.15;100.00;97905.00;5090031;28;20480;-77
2022/01/08 02:55:09;;;;;;;64.97;27.80;;;;;;;-5.17;100.00;97896.38;5090735;28;20028;-77
2022/01/08 02:57:34;;;;;;;68.07;28.98;;;;;;;-5.07;100.00;97904.81;5089211;28;20073;-77
2022/01/08 03:00:00;;;;;;;55.83;25.33;;;;;;;-5.15;100.00;97907.66;5090671;28;20028;-77
2022/01/08 03:02:25;;;;;;;52.97;25.83;;;;;;;-5.19;100.00;97909.06;5090864;28;20035;-77
2022/01/08 03:04:52;;;;;;;59.92;25.60;;;;;;;-5.22;100.00;97904.13;5090797;28;20038;-77
2022/01/08 03:07:18;;;;;;;59.13;26.30;;;;;;;-5.20;100.00;97902.13;5091114;28;20032;-77
2022/01/08 03:09:45;;;;;;;69.80;25.05;;;;;;;-5.37;100.00;97900.78;5090863;28;20028;-77
2022/01/08 03:12:10;;;;;;;72.05;25.65;;;;;;;-5.28;100.00;97907.59;5090220;28;20051;-78
2022/01/08 03:14:35;;;;;;;63.20;26.17;;;;;;;-5.22;100.00;97904.13;5090826;28;20032;-77
2022/01/08 03:17:01;;;;;;;61.70;26.67;;;;;;;-5.23;100.00;97897.19;5090656;28;20020;-77
2022/01/08 03:19:26;;;;;;;55.83;27.48;;;;;;;-5.17;100.00;97896.38;5090902;28;20042;-78
2022/01/08 03:21:54;;;;;;;61.60;26.90;;;;;;;-5.13;100.00;97889.63;5090768;28;20118;-77
2022/01/08 03:24:29;;;;;;;58.03;26.67;;;;;;;-5.03;100.00;97892.75;5090571;28;20027;-78
2022/01/08 03:26:56;;;;;;;65.47;28.48;;;;;;;-5.07;100.00;97887.00;5097038;28;20031;-77
2022/01/08 03:29:21;;;;;;;69.25;29.73;;;;;;;-5.05;100.00;97895.63;5097222;28;20020;-77
2022/01/08 03:31:48;;;;;;;78.38;32.33;;;;;;;-5.00;100.00;97897.69;5107955;28;20019;-77
2022/01/08 03:34:13;;;;;;;73.40;30.55;;;;;;;-5.03;100.00;97898.09;5119372;28;20439;-77
2022/01/08 03:36:39;;;;;;;80.47;30.33;;;;;;;-5.10;100.00;97883.91;5113349;28;20031;-76
2022/01/08 03:39:04;;;;;;;74.30;30.95;;;;;;;-5.00;100.00;97887.03;5114462;28;20031;-76
2022/01/08 03:41:30;;;;;;;78.28;29.25;;;;;;;-4.88;100.00;97901.44;5114256;28;20400;-78
2022/01/08 03:43:55;;;;;;;66.65;28.35;;;;;;;-4.93;100.00;97893.22;5112025;28;20373;-77
2022/01/08 03:46:22;;;;;;;68.72;28.27;;;;;;;-4.89;100.00;97884.59;5093833;28;20084;-77
2022/01/08 03:49:49;;;;;;;64.57;27.75;;;;;;;-4.86;100.00;97899.41;5093683;28;20036;-78
2022/01/08 03:51:43;;;;;;;66.60;26.48;;;;;;;-4.72;100.00;97892.25;5080159;28;20044;-77
2022/01/08 03:54:08;;;;;;;61.92;27.52;;;;;;;-4.78;100.00;97901.88;5092364;28;20032;-77
2022/01/08 03:56:34;;;;;;;55.10;24.52;;;;;;;-4.81;100.00;97894.28;5092056;28;20036;-80
2022/01/08 03:59:00;;;;;;;61.65;27.50;;;;;;;-4.96;100.00;97888.28;5093609;28;20134;-80
2022/01/08 04:01:25;;;;;;;61.63;27.60;;;;;;;-4.90;100.00;97890.16;5092228;28;20027;-76
2022/01/08 04:03:50;;;;;;;58.53;24.58;;;;;;;-4.87;100.00;97881.75;5093800;28;20372;-76
2022/01/08 04:06:16;;;;;;;52.25;24.33;;;;;;;-4.82;100.00;97884.63;5093458;28;20465;-76
2022/01/08 04:08:41;;;;;;;55.17;26.17;;;;;;;-4.88;100.00;97890.75;5093417;28;20480;-77
2022/01/08 04:11:07;;;;;;;53.97;24.88;;;;;;;-4.97;100.00;97886.63;5093280;28;20058;-77
2022/01/08 04:13:36;;;;;;;54.80;24.17;;;;;;;-5.06;100.00;97895.81;5093111;28;20468;-77
2022/01/08 04:16:10;;;;;;;54.95;24.55;;;;;;;-4.99;100.00;97902.00;5092965;28;20052;-77
2022/01/08 04:18:35;;;;;;;56.97;25.70;;;;;;;-5.02;100.00;97889.06;5092797;28;20366;-77
2022/01/08 04:23:44;;;;;;;51.60;23.40;;;;;;;-4.94;100.00;97887.06;5114131;28;20494;-79
2022/01/08 04:26:10;;;;;;;55.33;24.30;;;;;;;-4.98;100.00;97885.00;5113683;28;20024;-78
2022/01/08 04:28:35;;;;;;;53.35;25.30;;;;;;;-4.94;100.00;97896.88;5113224;28;20023;-77
2022/01/08 04:31:01;;;;;;;56.28;23.52;;;;;;;-5.12;100.00;97888.63;5113786;28;20031;-76
2022/01/08 04:33:26;;;;;;;61.15;26.38;;;;;;;-5.08;100.00;97890.69;5114125;28;20468;-78
2022/01/08 04:35:52;;;;;;;58.90;24.60;;;;;;;-4.98;100.00;97895.66;5116682;28;20035;-79
2022/01/08 04:38:17;;;;;;;64.88;26.50;;;;;;;-4.90;100.00;97893.63;5116632;28;22064;-76
2022/01/08 04:40:42;;;;;;;65.30;27.00;;;;;;;-4.94;100.00;97880.91;5113045;28;20076;-77
2022/01/08 04:43:08;;;;;;;65.85;24.88;;;;;;;-4.82;100.00;97879.28;5112293;28;20387;-78
2022/01/08 04:45:33;;;;;;;53.13;24.70;;;;;;;-4.85;100.00;97885.03;5112676;28;20480;-77
2022/01/08 04:48:00;;;;;;;60.63;25.83;;;;;;;-4.94;100.00;97875.56;5111429;28;20020;-78
2022/01/08 04:50:28;;;;;;;56.08;24.00;;;;;;;-4.96;100.00;97888.28;5111750;28;20028;-76
2022/01/08 04:52:55;;;;;;;58.00;27.10;;;;;;;-4.94;100.00;97891.56;5110676;28;20128;-78
2022/01/08 04:55:21;;;;;;;62.10;28.20;;;;;;;-4.95;100.00;97889.94;5112361;28;20082;-78
2022/01/08 04:57:46;;;;;;;61.70;25.08;;;;;;;-4.93;100.00;97893.22;5112576;28;20501;-78
2022/01/08 05:00:14;;;;;;;55.05;24.70;;;;;;;-4.93;100.00;97895.88;5112812;28;20490;-79
2022/01/08 05:02:39;;;;;;;64.45;25.80;;;;;;;-4.89;100.00;97889.13;5112719;28;20404;-78
2022/01/08 05:05:05;;;;;;;65.80;29.60;;;;;;;-4.84;100.00;97896.53;5114523;28;20027;-79
2022/01/08 05:07:30;;;;;;;54.63;24.42;;;;;;;-4.87;100.00;97895.91;5115195;28;20027;-78
2022/01/08 05:09:56;;;;;;;52.20;23.33;;;;;;;-4.89;100.00;97889.94;5113068;28;20388;-78
2022/01/08 05:12:22;;;;;;;56.20;24.20;;;;;;;-5.00;100.00;97887.84;5112394;28;20027;-79
2022/01/08 05:14:48;;;;;;;51.92;22.38;;;;;;;-5.20;100.00;97886.13;5111226;28;20024;-78
2022/01/08 05:17:14;;;;;;;49.40;21.42;;;;;;;-5.06;100.00;97882.47;5112046;28;20077;-79
2022/01/08 05:22:06;;;;;;;52.47;22.85;;;;;;;-4.97;100.00;97879.44;5114182;28;20023;-77
2022/01/08 05:24:33;;;;;;;57.72;23.48;;;;;;;-5.08;100.00;97885.38;5125224;28;20023;-77
2022/01/08 05:26:59;;;;;;;55.97;24.88;;;;;;;-5.04;100.00;97881.25;5114382;28;20020;-77
2022/01/08 05:29:24;;;;;;;59.40;25.02;;;;;;;-4.99;100.00;97888.69;5111023;28;20042;-78
2022/01/08 05:31:52;;;;;;;57.20;24.60;;;;;;;-4.98;100.00;97880.47;5111147;28;20032;-76
2022/01/08 05:34:17;;;;;;;61.47;25.15;;;;;;;-4.98;100.00;97885.00;5112722;28;20037;-78
2022/01/08 05:36:42;;;;;;;67.18;25.52;;;;;;;-5.04;100.00;97891.09;5112038;28;20027;-78
2022/01/08 05:39:08;;;;;;;68.93;25.92;;;;;;;-5.10;100.00;97876.72;5112081;28;20032;-78
2022/01/08 05:41:33;;;;;;;68.55;26.30;;;;;;;-5.15;100.00;97881.00;5106495;28;20031;-77
2022/01/08 05:43:59;;;;;;;63.33;27.20;;;;;;;-5.31;100.00;97871.50;5099678;28;20038;-78
2022/01/08 05:46:24;;;;;;;59.75;25.73;;;;;;;-5.30;100.00;97875.00;5091330;28;21085;-78
2022/01/08 05:48:49;;;;;;;57.80;23.77;;;;;;;-5.31;100.00;97868.84;5109710;28;20383;-76
2022/01/08 05:51:15;;;;;;;71.97;27.70;;;;;;;-5.23;100.00;97871.31;5111703;28;20038;-76
2022/01/08 05:53:40;;;;;;;67.93;26.50;;;;;;;-5.32;100.00;97874.34;5111371;28;20035;-76
2022/01/08 05:56:06;;;;;;;72.80;29.55;;;;;;;-5.48;100.00;97875.50;5111344;28;20515;-76
2022/01/08 05:58:32;;;;;;;75.28;28.38;;;;;;;-5.38;100.00;97880.47;5111548;28;20096;-76
2022/01/08 06:00:57;;;;;;;70.03;27.33;;;;;;;-5.27;100.00;97883.44;5093284;28;20020;-78
2022/01/08 06:03:22;;;;;;;72.93;30.25;;;;;;;-5.33;100.00;97870.88;5091285;28;20031;-76
2022/01/08 06:05:48;;;;;;;66.85;26.80;;;;;;;-5.28;100.00;97872.94;5091458;28;20031;-79
2022/01/08 06:08:13;;;;;;;66.15;28.27;;;;;;;-5.42;100.00;97861.41;5091104;28;20024;-78
2022/01/08 06:10:39;;;;;;;64.40;27.63;;;;;;;-5.54;100.00;97869.13;5091140;28;20035;-77
2022/01/08 06:13:04;;;;;;;70.28;29.10;;;;;;;-5.52;100.00;97863.59;5091244;28;20031;-78
2022/01/08 06:15:30;;;;;;;72.15;26.83;;;;;;;-5.60;100.00;97861.09;5090981;28;20431;-78
2022/01/08 06:17:55;;;;;;;74.75;30.42;;;;;;;-5.70;100.00;97853.44;5090993;28;20111;-76
2022/01/08 06:20:20;;;;;;;78.00;28.58;;;;;;;-5.71;100.00;97862.47;5089507;28;20030;-77
2022/01/08 06:22:46;;;;;;;78.10;28.35;;;;;;;-5.75;100.00;97857.72;5092496;28;20032;-77
2022/01/08 06:25:11;;;;;;;70.90;28.30;;;;;;;-5.74;100.00;97859.38;5092701;28;20052;-76
2022/01/08 06:27:37;;;;;;;79.45;28.02;;;;;;;-5.73;100.00;97856.50;5092248;28;20062;-78
2022/01/08 06:30:03;;;;;;;69.05;27.20;;;;;;;-5.71;100.00;97851.81;5095025;28;20047;-79
2022/01/08 06:32:28;;;;;;;66.68;27.65;;;;;;;-5.53;100.00;97860.13;5110930;28;20176;-78
2022/01/08 06:34:54;;;;;;;65.50;26.23;;;;;;;-5.39;100.00;97871.69;5111573;28;20531;-76
2022/01/08 06:37:20;;;;;;;56.28;24.60;;;;;;;-5.15;100.00;97873.00;5093930;28;20020;-79
2022/01/08 06:39:45;;;;;;;63.67;27.13;;;;;;;-5.10;100.00;97882.06;5090462;28;20028;-78
2022/01/08 06:42:10;;;;;;;69.25;28.02;;;;;;;-5.02;100.00;97883.75;5090935;28;20032;-78
2022/01/08 06:44:36;;;;;;;71.40;29.35;;;;;;;-5.12;100.00;97891.28;5091329;28;20477;-78
2022/01/08 06:47:01;;;;;;;57.95;25.42;;;;;;;-5.03;100.00;97888.25;5094255;28;20020;-76
2022/01/08 06:49:27;;;;;;;56.85;24.80;;;;;;;-5.12;100.00;97878.78;5095182;28;20495;-77
2022/01/08 06:51:52;;;;;;;64.30;25.77;;;;;;;-5.08;100.00;97879.22;5090806;28;20035;-78
2022/01/08 06:54:18;;;;;;;57.45;24.88;;;;;;;-5.13;100.00;97874.47;5090953;28;20431;-78
2022/01/08 06:56:43;;;;;;;61.08;25.73;;;;;;;-5.26;100.00;97871.72;5090600;28;20382;-79
2022/01/08 06:59:09;;;;;;;55.92;25.13;;;;;;;-5.29;100.00;97866.00;5090412;28;20028;-77
2022/01/08 07:01:34;;;;;;;62.05;24.10;;;;;;;-5.28;100.00;97867.63;5090663;28;20028;-75
2022/01/08 07:04:00;;;;;;;58.58;25.88;;;;;;;-5.23;100.00;97873.19;5090939;28;20126;-79
2022/01/08 07:06:25;;;;;;;55.00;24.55;;;;;;;-5.32;100.00;97871.69;5090650;28;20477;-77
2022/01/08 07:08:51;;;;;;;62.65;23.70;;;;;;;-5.42;100.00;97866.75;5094320;28;20632;-80
2022/01/08 07:11:19;;;;;;;60.45;23.02;;;;;;;-5.63;100.00;97864.13;5094350;28;20016;-78
2022/01/08 07:13:44;;;;;;;49.03;22.77;;;;;;;-5.72;100.00;97871.47;5094182;28;20020;-76
2022/01/08 07:16:09;;;;;;;51.78;22.45;;;;;;;-5.80;100.00;97879.63;5099350;28;20027;-79
2022/01/08 07:18:35;;;;;;;57.33;24.83;;;;;;;-5.88;100.00;97877.13;5103135;28;20107;-77
2022/01/08 07:21:00;;;;;;;53.55;22.67;;;;;;;-5.94;100.00;97867.25;5094489;28;20492;-78
2022/01/08 07:23:26;;;;;;;54.80;24.60;;;;;;;-5.92;100.00;97870.56;5114501;28;20024;-76
2022/01/08 07:25:51;;;;;;;55.05;25.80;;;;;;;-5.99;100.00;97869.66;5114771;28;20110;-75
2022/01/08 07:28:17;;;;;;;48.60;24.70;;;;;;;-6.08;100.00;97866.34;5114653;28;20036;-76
2022/01/08 07:30:42;;;;;;;56.60;24.70;;;;;;;-6.08;100.00;97865.50;5114833;28;20027;-78
2022/01/08 07:33:08;;;;;;;49.53;22.40;;;;;;;-6.05;100.00;97860.63;5114251;28;20035;-75
2022/01/08 07:35:33;;;;;;;54.42;24.52;;;;;;;-6.02;100.00;97859.41;5114881;28;20032;-74
2022/01/08 07:37:59;;;;;;;49.63;23.55;;;;;;;-5.98;100.00;97871.28;5114535;28;20034;-77
2022/01/08 07:40:25;;;;;;;51.67;24.33;;;;;;;-5.95;100.00;97862.13;5114713;28;20073;-78
2022/01/08 07:42:51;;;;;;;65.70;26.85;;;;;;;-5.91;100.00;97858.03;5114601;28;20499;-77
2022/01/08 07:45:18;;;;;;;62.20;26.42;;;;;;;-5.85;100.00;97855.41;5093429;28;20024;-77
2022/01/08 07:47:44;;;;;;;53.65;25.25;;;;;;;-5.74;100.00;97857.53;5093984;28;20024;-76
2022/01/08 07:50:10;;;;;;;61.03;25.13;;;;;;;-5.59;100.00;97863.56;5093694;28;20388;-78
2022/01/08 07:52:37;;;;;;;59.55;26.80;;;;;;;-5.47;100.00;97862.00;5093981;28;20028;-77
2022/01/08 07:55:02;;;;;;;59.70;25.15;;;;;;;-5.24;100.00;97861.72;5094478;28;20027;-79
2022/01/08 07:57:28;;;;;;;47.35;22.58;;;;;;;-4.65;100.00;97853.09;5094083;28;20032;-77
2022/01/08 07:59:53;;;;;;;49.63;23.45;;;;;;;-4.04;100.00;97846.56;5093957;28;20523;-80
2022/01/08 08:02:20;;;;;;;46.97;24.55;;;;;;;-3.74;100.00;97852.31;5094767;28;20048;-74
2022/01/08 08:04:45;;;;;;;49.65;22.33;;;;;;;-3.85;100.00;97855.59;5105061;28;20065;-79
2022/01/08 08:07:11;;;;;;;46.95;23.25;;;;;;;-3.09;100.00;97853.19;5092402;28;20024;-79
2022/01/08 08:09:36;;;;;;;55.60;25.63;;;;;;;-2.11;100.00;97863.34;5102721;28;20023;-77
2022/01/08 08:12:04;;;;;;;52.03;24.55;;;;;;;-2.06;99.74;97862.69;5114094;28;20080;-75
2022/01/08 08:14:30;;;;;;;52.00;22.45;;;;;;;-2.26;100.00;97854.81;5115273;28;20027;-76
2022/01/08 08:16:55;;;;;;;51.42;23.73;;;;;;;-3.02;100.00;97854.81;5114300;27;20380;-76
2022/01/08 08:19:21;;;;;;;49.05;22.48;;;;;;;-3.35;100.00;97852.22;5117087;28;20023;-77
2022/01/08 08:21:46;;;;;;;52.47;23.50;;;;;;;-3.66;100.00;97857.44;5103558;28;20028;-77
2022/01/08 08:24:14;;;;;;;49.42;23.00;;;;;;;-3.65;100.00;97860.94;5091923;28;20008;-77
2022/01/08 08:26:39;;;;;;;50.10;24.42;;;;;;;-3.71;100.00;97859.09;5093737;28;20028;-77
2022/01/08 08:29:05;;;;;;;56.92;24.30;;;;;;;-3.68;100.00;97854.16;5095009;28;20076;-81
2022/01/08 08:31:30;;;;;;;46.63;23.88;;;;;;;-3.65;100.00;97853.75;5094240;28;20024;-78
2022/01/08 08:33:56;;;;;;;54.65;24.52;;;;;;;-3.87;100.00;97855.81;5092619;28;20043;-77
2022/01/08 08:36:21;;;;;;;62.65;27.45;;;;;;;-3.88;100.00;97856.00;5091803;28;20028;-76
2022/01/08 08:38:47;;;;;;;62.13;28.33;;;;;;;-3.66;100.00;97876.13;5092834;28;20035;-77
2022/01/08 08:41:12;;;;;;;53.10;23.95;;;;;;;-3.46;100.00;97882.28;5093228;28;20021;-77
2022/01/08 08:43:38;;;;;;;55.85;25.02;;;;;;;-3.40;100.00;97897.50;5092458;28;20036;-77
2022/01/08 08:46:04;;;;;;;53.70;23.50;;;;;;;-3.08;100.00;97901.13;5092680;28;20023;-78
2022/01/08 08:48:29;;;;;;;60.30;25.58;;;;;;;-3.03;100.00;97895.13;5092184;28;20028;-77
2022/01/08 08:50:55;;;;;;;64.68;27.15;;;;;;;-2.85;100.00;97889.94;5092517;28;20433;-77
2022/01/08 08:53:20;;;;;;;53.28;22.92;;;;;;;-2.68;100.00;97883.06;5092445;28;20023;-76
2022/01/08 08:55:47;;;;;;;57.35;25.25;;;;;;;-2.64;100.00;97886.13;5092689;28;20040;-77
2022/01/08 08:58:13;;;;;;;62.45;25.45;;;;;;;-2.02;100.00;97882.66;5101122;28;20035;-77
2022/01/08 09:00:39;;;;;;;57.67;24.13;;;;;;;-2.10;100.00;97885.63;5105952;28;20026;-78
2022/01/08 09:03:10;;;;;;;59.90;25.98;;;;;;;-2.11;100.00;97881.28;5103414;28;20132;-78
2022/01/08 09:05:36;;;;;;;61.45;25.60;;;;;;;-2.20;100.00;97886.09;5112907;28;20160;-76
2022/01/08 09:08:03;;;;;;;59.20;25.10;;;;;;;-2.50;100.00;97877.81;5112536;28;20094;-79
2022/01/08 09:10:29;;;;;;;56.55;26.55;;;;;;;-2.69;100.00;97884.09;5113376;28;20040;-77
2022/01/08 09:12:54;;;;;;;60.10;28.42;;;;;;;-2.81;100.00;97885.78;5112103;28;20039;-79
2022/01/08 09:15:25;;;;;;;68.55;29.20;;;;;;;-2.59;100.00;97876.41;5102102;28;20483;-78
2022/01/08 09:17:58;;;;;;;56.53;25.35;;;;;;;-2.22;100.00;97891.66;5091523;28;20030;-77
2022/01/08 09:20:28;;;;;;;56.17;26.23;;;;;;;-2.22;100.00;97899.69;5105112;28;20028;-76
2022/01/08 09:22:53;;;;;;;59.63;25.27;;;;;;;-2.08;100.00;97902.28;5110188;28;20031;-77
2022/01/08 09:25:19;;;;;;;59.53;25.92;;;;;;;-2.11;100.00;97898.19;5110535;28;20380;-75
2022/01/08 09:27:45;;;;;;;56.75;25.80;;;;;;;-2.24;100.00;97893.72;5110305;28;20403;-78
2022/01/08 09:30:11;;;;;;;61.85;25.83;;;;;;;-2.51;100.00;97886.91;5109470;28;20016;-76
2022/01/08 09:32:37;;;;;;;63.97;26.38;;;;;;;-2.32;100.00;97888.63;5109579;28;20024;-76
2022/01/08 09:35:04;;;;;;;63.33;26.92;;;;;;;-2.12;100.00;97885.81;5111097;28;20136;-76
2022/01/08 09:37:29;;;;;;;60.83;26.35;;;;;;;-2.07;100.00;97887.88;5102364;28;20020;-75
2022/01/08 09:39:55;;;;;;;63.63;29.35;;;;;;;-1.99;100.00;97882.22;5110648;28;20030;-78
2022/01/08 09:42:20;;;;;;;62.75;27.15;;;;;;;-2.10;100.00;97877.59;5105129;28;20048;-77
2022/01/08 09:44:46;;;;;;;60.20;25.38;;;;;;;-2.02;100.00;97877.31;5107309;28;20061;-74
2022/01/08 09:47:15;;;;;;;64.65;27.50;;;;;;;-1.90;100.00;97873.69;5109010;28;20076;-75
2022/01/08 09:49:40;;;;;;;65.88;29.25;;;;;;;-1.58;100.00;97882.50;5109614;28;20031;-76
2022/01/08 09:52:07;;;;;;;57.38;25.88;;;;;;;-1.42;100.00;97881.13;5108820;28;20035;-77
2022/01/08 09:54:33;;;;;;;58.55;26.73;;;;;;;-1.20;100.00;97880.50;5108595;28;20076;-77
2022/01/08 09:56:59;;;;;;;62.47;28.42;;;;;;;-1.36;100.00;97869.50;5104351;28;20035;-79
2022/01/08 09:59:25;;;;;;;62.35;25.75;;;;;;;-1.01;100.00;97872.44;5105512;28;20028;-77
2022/01/08 10:02:10;;;;;;;58.88;25.75;;;;;;;-0.59;100.00;97868.81;5106028;28;20062;-78
2022/01/08 10:04:37;;;;;;;61.28;28.30;;;;;;;-0.60;100.00;97868.00;5106139;28;20748;-77
2022/01/08 10:07:23;;;;;;;57.97;25.08;;;;;;;-0.46;100.00;97867.81;5104447;28;20020;-77
2022/01/08 10:10:10;;;;;;;58.72;25.70;;;;;;;-0.02;100.00;97865.53;5107440;28;20030;-78
2022/01/08 10:12:41;;;;;;;56.05;26.00;;;;;;;0.61;93.57;97872.97;5105641;28;20035;-76
2022/01/08 10:17:51;;;;;;;59.13;25.92;;;;;;;-0.09;95.61;97845.97;5103217;28;20097;-77
2022/01/08 10:20:31;;;;;;;53.80;24.88;;;;;;;-0.22;95.79;97848.88;5102721;28;20066;-76
2022/01/08 10:22:59;;;;;;;51.85;24.77;;;;;;;-0.77;100.00;97858.09;5100005;28;20035;-76
2022/01/08 10:25:24;;;;;;;53.03;26.13;;;;;;;-0.93;100.00;97853.34;5103879;28;20027;-77
2022/01/08 10:27:50;;;;;;;56.67;25.60;;;;;;;-0.74;100.00;97852.28;5107272;28;20054;-78
2022/01/08 10:30:27;;;;;;;61.88;25.95;;;;;;;-0.69;100.00;97844.38;5104400;28;20020;-77
2022/01/08 10:32:57;;;;;;;55.65;24.30;;;;;;;-0.69;100.00;97836.34;5103352;28;20032;-77
2022/01/08 10:35:51;;;;;;;60.08;27.02;;;;;;;-0.24;99.79;97831.34;5106161;28;20110;-77
2022/01/08 10:38:17;;;;;;;52.33;24.38;;;;;;;0.66;94.76;97821.94;5105912;28;20032;-77
2022/01/08 10:40:43;;;;;;;71.18;29.48;;;;;;;0.95;90.23;97815.59;5106277;28;20536;-78
2022/01/08 10:43:30;;;;;;;58.40;26.80;;;;;;;2.02;84.60;97818.41;5104546;28;20059;-77
2022/01/08 10:46:08;;;;;;;55.10;24.83;;;;;;;2.15;80.28;97818.09;5105192;28;20020;-77
2022/01/08 10:48:33;;;;;;;48.85;21.75;;;;;;;1.97;78.84;97813.75;5104565;28;20028;-77
2022/01/08 10:51:16;;;;;;;46.97;22.02;;;;;;;2.01;79.66;97814.91;5108124;28;20030;-77
2022/01/08 10:56:51;;;;;;;49.00;24.58;;;;;;;2.03;77.40;97796.63;5054436;28;1188890;-77
2022/01/08 10:59:22;;;;;;;51.45;24.95;;;;;;;1.23;79.79;97779.78;5106195;28;20023;-78
2022/01/08 11:01:58;;;;;;;47.65;25.35;;;;;;;0.94;86.35;97797.78;5104303;28;20541;-78
2022/01/08 11:04:49;;;;;;;48.38;24.20;;;;;;;2.18;80.25;97787.94;5106187;28;20027;-79
2022/01/08 11:07:20;;;;;;;51.63;24.15;;;;;;;2.86;77.92;97790.28;5095694;28;20020;-77
2022/01/08 11:09:47;;;;;;;56.28;24.98;;;;;;;2.16;78.57;97780.06;5106732;28;20388;-77
2022/01/08 11:12:17;;;;;;;50.28;23.63;;;;;;;1.63;80.03;97769.75;5105416;28;20133;-77
2022/01/08 11:17:25;;;;;;;57.60;24.23;;;;;;;1.13;85.02;97765.34;5106589;28;20023;-76
2022/01/08 11:19:53;;;;;;;46.90;23.05;;;;;;;1.10;85.57;97766.59;5106142;28;20039;-76
2022/01/08 11:22:22;;;;;;;49.45;23.52;;;;;;;1.00;85.72;97761.84;5105845;28;20015;-78
2022/01/08 11:24:59;;;;;;;45.38;22.67;;;;;;;0.94;86.99;97760.09;5106040;28;20083;-77
2022/01/08 11:27:45;;;;;;;51.42;23.60;;;;;;;0.92;86.56;97754.16;5106961;28;20016;-76
2022/01/08 11:30:12;;;;;;;44.05;21.13;;;;;;;1.53;84.61;97752.59;5095919;28;20805;-76
2022/01/08 11:32:39;;;;;;;50.47;23.77;;;;;;;1.51;83.51;97749.31;5104896;28;21350;-77
2022/01/08 11:35:08;;;;;;;51.22;24.77;;;;;;;1.77;82.28;97747.88;5107439;28;20019;-76
2022/01/08 11:37:34;;;;;;;48.25;24.63;;;;;;;1.48;85.18;97739.03;5107594;28;20019;-75
2022/01/08 11:40:05;;;;;;;55.72;27.70;;;;;;;1.25;84.42;97733.78;5107133;28;20484;-78
2022/01/08 11:42:33;;;;;;;65.00;33.40;;;;;;;1.22;86.33;97728.88;5106700;28;20039;-77
2022/01/08 11:45:00;;;;;;;48.70;23.05;;;;;;;1.00;86.22;97732.22;5106051;28;20015;-77